sensor_id;sensor_type;location;lat;lon;timestamp;P1;durP1;ratioP1;P2;durP2;ratioP2
76320;SDS011;65132;52.088;5.402;2023-07-31T00:02:06;2.50;;;0.85;;
76320;SDS011;65132;52.088;5.402;2023-07-31T00:04:39;2.00;;;0.73;;
76320;SDS011;65132;52.088;5.402;2023-07-31T00:07:08;3.22;;;0.98;;
76320;SDS011;65132;52.088;5.402;2023-07-31T00:09:34;2.88;;;1.08;;
76320;SDS011;65132;52.088;5.402;2023-07-31T00:12:08;5.75;;;1.23;;
76320;SDS011;65132;52.088;5.402;2023-07-31T00:14:37;2.78;;;0.93;;
76320;SDS011;65132;52.088;5.402;2023-07-31T00:17:04;3.05;;;1.08;;
76320;SDS011;65132;52.088;5.402;2023-07-31T00:19:30;3.83;;;1.50;;
76320;SDS011;65132;52.088;5.402;2023-07-31T00:21:58;4.38;;;1.83;;
76320;SDS011;65132;52.088;5.402;2023-07-31T00:24:26;5.43;;;1.90;;
76320;SDS011;65132;52.088;5.402;2023-07-31T00:26:54;5.85;;;1.73;;
76320;SDS011;65132;52.088;5.402;2023-07-31T00:29:29;8.40;;;2.22;;
76320;SDS011;65132;52.088;5.402;2023-07-31T00:32:01;11.38;;;3.22;;
76320;SDS011;65132;52.088;5.402;2023-07-31T00:34:31;10.57;;;2.88;;
76320;SDS011;65132;52.088;5.402;2023-07-31T00:36:57;10.80;;;2.78;;
76320;SDS011;65132;52.088;5.402;2023-07-31T00:39:24;12.77;;;2.78;;
76320;SDS011;65132;52.088;5.402;2023-07-31T00:41:50;16.73;;;3.40;;
76320;SDS011;65132;52.088;5.402;2023-07-31T00:44:25;20.73;;;4.05;;
76320;SDS011;65132;52.088;5.402;2023-07-31T00:46:52;14.90;;;3.63;;
76320;SDS011;65132;52.088;5.402;2023-07-31T00:49:20;17.85;;;3.60;;
76320;SDS011;65132;52.088;5.402;2023-07-31T00:51:49;16.35;;;3.75;;
76320;SDS011;65132;52.088;5.402;2023-07-31T00:54:18;25.67;;;5.70;;
76320;SDS011;65132;52.088;5.402;2023-07-31T00:56:48;18.67;;;5.13;;
76320;SDS011;65132;52.088;5.402;2023-07-31T00:59:21;12.52;;;3.90;;
76320;SDS011;65132;52.088;5.402;2023-07-31T01:01:52;20.55;;;4.32;;
76320;SDS011;65132;52.088;5.402;2023-07-31T01:04:19;14.15;;;3.70;;
76320;SDS011;65132;52.088;5.402;2023-07-31T01:06:52;15.02;;;3.20;;
76320;SDS011;65132;52.088;5.402;2023-07-31T01:09:36;20.85;;;3.60;;
76320;SDS011;65132;52.088;5.402;2023-07-31T01:12:05;17.90;;;3.72;;
76320;SDS011;65132;52.088;5.402;2023-07-31T01:14:43;15.45;;;4.10;;
76320;SDS011;65132;52.088;5.402;2023-07-31T01:17:22;16.55;;;3.40;;
76320;SDS011;65132;52.088;5.402;2023-07-31T01:19:51;16.35;;;4.28;;
76320;SDS011;65132;52.088;5.402;2023-07-31T01:22:28;13.90;;;3.88;;
76320;SDS011;65132;52.088;5.402;2023-07-31T01:28:01;16.95;;;3.67;;
76320;SDS011;65132;52.088;5.402;2023-07-31T01:30:34;18.70;;;4.80;;
76320;SDS011;65132;52.088;5.402;2023-07-31T01:33:13;21.30;;;4.03;;
76320;SDS011;65132;52.088;5.402;2023-07-31T01:35:45;13.30;;;3.17;;
76320;SDS011;65132;52.088;5.402;2023-07-31T01:38:14;15.02;;;3.45;;
76320;SDS011;65132;52.088;5.402;2023-07-31T01:40:48;15.85;;;3.47;;
76320;SDS011;65132;52.088;5.402;2023-07-31T01:43:19;12.93;;;3.45;;
76320;SDS011;65132;52.088;5.402;2023-07-31T01:45:52;15.43;;;3.67;;
76320;SDS011;65132;52.088;5.402;2023-07-31T01:48:19;14.55;;;3.15;;
76320;SDS011;65132;52.088;5.402;2023-07-31T01:50:49;23.05;;;4.55;;
76320;SDS011;65132;52.088;5.402;2023-07-31T01:53:18;17.00;;;4.22;;
76320;SDS011;65132;52.088;5.402;2023-07-31T01:55:44;16.88;;;3.78;;
76320;SDS011;65132;52.088;5.402;2023-07-31T01:58:18;19.05;;;4.68;;
76320;SDS011;65132;52.088;5.402;2023-07-31T02:00:48;16.15;;;3.63;;
76320;SDS011;65132;52.088;5.402;2023-07-31T02:03:20;12.52;;;3.58;;
76320;SDS011;65132;52.088;5.402;2023-07-31T02:05:54;11.75;;;3.30;;
76320;SDS011;65132;52.088;5.402;2023-07-31T02:08:26;12.23;;;3.40;;
76320;SDS011;65132;52.088;5.402;2023-07-31T02:10:53;10.10;;;2.80;;
76320;SDS011;65132;52.088;5.402;2023-07-31T02:13:33;9.27;;;2.97;;
76320;SDS011;65132;52.088;5.402;2023-07-31T02:16:08;9.73;;;2.63;;
76320;SDS011;65132;52.088;5.402;2023-07-31T02:18:39;11.90;;;3.88;;
76320;SDS011;65132;52.088;5.402;2023-07-31T02:21:09;8.80;;;2.78;;
76320;SDS011;65132;52.088;5.402;2023-07-31T02:23:37;12.95;;;3.30;;
76320;SDS011;65132;52.088;5.402;2023-07-31T02:26:09;9.77;;;3.22;;
76320;SDS011;65132;52.088;5.402;2023-07-31T02:28:35;10.52;;;2.80;;
76320;SDS011;65132;52.088;5.402;2023-07-31T02:31:01;13.60;;;3.55;;
76320;SDS011;65132;52.088;5.402;2023-07-31T02:33:30;15.27;;;3.38;;
76320;SDS011;65132;52.088;5.402;2023-07-31T02:35:59;14.00;;;3.08;;
76320;SDS011;65132;52.088;5.402;2023-07-31T02:38:28;11.27;;;2.58;;
76320;SDS011;65132;52.088;5.402;2023-07-31T02:40:55;16.00;;;2.97;;
76320;SDS011;65132;52.088;5.402;2023-07-31T02:43:22;10.48;;;2.92;;
76320;SDS011;65132;52.088;5.402;2023-07-31T02:45:52;10.82;;;2.33;;
76320;SDS011;65132;52.088;5.402;2023-07-31T02:48:20;15.05;;;3.33;;
76320;SDS011;65132;52.088;5.402;2023-07-31T02:50:50;10.95;;;2.90;;
76320;SDS011;65132;52.088;5.402;2023-07-31T02:53:17;11.05;;;3.25;;
76320;SDS011;65132;52.088;5.402;2023-07-31T02:55:46;11.68;;;3.70;;
76320;SDS011;65132;52.088;5.402;2023-07-31T02:58:21;16.77;;;4.28;;
76320;SDS011;65132;52.088;5.402;2023-07-31T03:00:49;16.23;;;3.88;;
76320;SDS011;65132;52.088;5.402;2023-07-31T03:03:23;12.20;;;3.97;;
76320;SDS011;65132;52.088;5.402;2023-07-31T03:05:50;15.35;;;3.45;;
76320;SDS011;65132;52.088;5.402;2023-07-31T03:08:47;14.55;;;5.53;;
76320;SDS011;65132;52.088;5.402;2023-07-31T03:11:13;17.88;;;5.45;;
76320;SDS011;65132;52.088;5.402;2023-07-31T03:13:47;18.02;;;3.97;;
76320;SDS011;65132;52.088;5.402;2023-07-31T03:16:13;14.02;;;3.85;;
76320;SDS011;65132;52.088;5.402;2023-07-31T03:18:40;18.55;;;4.63;;
76320;SDS011;65132;52.088;5.402;2023-07-31T03:21:08;16.92;;;4.70;;
76320;SDS011;65132;52.088;5.402;2023-07-31T03:23:34;16.55;;;4.72;;
76320;SDS011;65132;52.088;5.402;2023-07-31T03:26:05;17.27;;;5.05;;
76320;SDS011;65132;52.088;5.402;2023-07-31T03:28:34;18.10;;;4.00;;
76320;SDS011;65132;52.088;5.402;2023-07-31T03:31:02;26.05;;;4.95;;
76320;SDS011;65132;52.088;5.402;2023-07-31T03:33:29;14.43;;;4.05;;
76320;SDS011;65132;52.088;5.402;2023-07-31T03:36:00;12.70;;;3.45;;
76320;SDS011;65132;52.088;5.402;2023-07-31T03:38:34;12.30;;;4.20;;
76320;SDS011;65132;52.088;5.402;2023-07-31T03:41:00;15.93;;;4.40;;
76320;SDS011;65132;52.088;5.402;2023-07-31T03:43:27;15.73;;;4.20;;
76320;SDS011;65132;52.088;5.402;2023-07-31T03:45:53;14.10;;;4.18;;
76320;SDS011;65132;52.088;5.402;2023-07-31T03:48:31;16.50;;;4.47;;
76320;SDS011;65132;52.088;5.402;2023-07-31T03:51:05;19.10;;;4.38;;
76320;SDS011;65132;52.088;5.402;2023-07-31T03:53:45;12.95;;;4.40;;
76320;SDS011;65132;52.088;5.402;2023-07-31T03:56:14;14.25;;;4.40;;
76320;SDS011;65132;52.088;5.402;2023-07-31T03:58:42;11.38;;;3.75;;
76320;SDS011;65132;52.088;5.402;2023-07-31T04:01:10;12.63;;;3.67;;
76320;SDS011;65132;52.088;5.402;2023-07-31T04:03:40;12.10;;;3.65;;
76320;SDS011;65132;52.088;5.402;2023-07-31T04:06:15;16.85;;;4.22;;
76320;SDS011;65132;52.088;5.402;2023-07-31T04:08:44;13.85;;;3.95;;
76320;SDS011;65132;52.088;5.402;2023-07-31T04:11:11;18.75;;;3.95;;
76320;SDS011;65132;52.088;5.402;2023-07-31T04:13:40;16.40;;;4.97;;
76320;SDS011;65132;52.088;5.402;2023-07-31T04:16:09;15.13;;;4.28;;
76320;SDS011;65132;52.088;5.402;2023-07-31T04:18:35;11.43;;;3.70;;
76320;SDS011;65132;52.088;5.402;2023-07-31T04:21:02;14.40;;;4.18;;
76320;SDS011;65132;52.088;5.402;2023-07-31T04:23:28;10.98;;;3.72;;
76320;SDS011;65132;52.088;5.402;2023-07-31T04:25:57;18.45;;;4.63;;
76320;SDS011;65132;52.088;5.402;2023-07-31T04:28:26;11.90;;;3.90;;
76320;SDS011;65132;52.088;5.402;2023-07-31T04:30:57;16.80;;;4.25;;
76320;SDS011;65132;52.088;5.402;2023-07-31T04:36:02;16.75;;;4.82;;
76320;SDS011;65132;52.088;5.402;2023-07-31T04:38:36;18.02;;;4.72;;
76320;SDS011;65132;52.088;5.402;2023-07-31T04:41:03;10.68;;;3.65;;
76320;SDS011;65132;52.088;5.402;2023-07-31T04:43:29;15.18;;;4.22;;
76320;SDS011;65132;52.088;5.402;2023-07-31T04:45:56;13.48;;;4.90;;
76320;SDS011;65132;52.088;5.402;2023-07-31T04:48:22;13.82;;;3.80;;
76320;SDS011;65132;52.088;5.402;2023-07-31T04:50:49;10.80;;;3.92;;
76320;SDS011;65132;52.088;5.402;2023-07-31T04:53:15;16.20;;;4.50;;
76320;SDS011;65132;52.088;5.402;2023-07-31T04:55:42;12.27;;;3.75;;
76320;SDS011;65132;52.088;5.402;2023-07-31T04:58:12;23.75;;;4.90;;
76320;SDS011;65132;52.088;5.402;2023-07-31T05:00:50;12.55;;;4.15;;
76320;SDS011;65132;52.088;5.402;2023-07-31T05:03:23;14.52;;;4.13;;
76320;SDS011;65132;52.088;5.402;2023-07-31T05:05:52;12.52;;;3.83;;
76320;SDS011;65132;52.088;5.402;2023-07-31T05:08:19;12.75;;;4.47;;
76320;SDS011;65132;52.088;5.402;2023-07-31T05:10:50;14.55;;;4.20;;
76320;SDS011;65132;52.088;5.402;2023-07-31T05:13:20;13.05;;;4.07;;
76320;SDS011;65132;52.088;5.402;2023-07-31T05:15:53;11.73;;;4.10;;
76320;SDS011;65132;52.088;5.402;2023-07-31T05:18:20;10.85;;;3.60;;
76320;SDS011;65132;52.088;5.402;2023-07-31T05:20:49;17.00;;;4.15;;
76320;SDS011;65132;52.088;5.402;2023-07-31T05:23:18;17.70;;;3.58;;
76320;SDS011;65132;52.088;5.402;2023-07-31T05:25:45;17.10;;;3.88;;
76320;SDS011;65132;52.088;5.402;2023-07-31T05:28:12;11.90;;;3.20;;
76320;SDS011;65132;52.088;5.402;2023-07-31T05:30:42;9.73;;;3.03;;
76320;SDS011;65132;52.088;5.402;2023-07-31T05:33:10;13.10;;;3.22;;
76320;SDS011;65132;52.088;5.402;2023-07-31T05:35:40;11.15;;;2.92;;
76320;SDS011;65132;52.088;5.402;2023-07-31T05:38:07;8.02;;;2.72;;
76320;SDS011;65132;52.088;5.402;2023-07-31T05:40:36;10.07;;;3.67;;
76320;SDS011;65132;52.088;5.402;2023-07-31T05:43:03;9.60;;;2.83;;
76320;SDS011;65132;52.088;5.402;2023-07-31T05:45:29;11.45;;;2.88;;
76320;SDS011;65132;52.088;5.402;2023-07-31T05:47:58;9.70;;;3.00;;
76320;SDS011;65132;52.088;5.402;2023-07-31T05:50:25;6.93;;;2.67;;
76320;SDS011;65132;52.088;5.402;2023-07-31T05:52:52;8.45;;;3.38;;
76320;SDS011;65132;52.088;5.402;2023-07-31T05:55:21;8.30;;;3.28;;
76320;SDS011;65132;52.088;5.402;2023-07-31T05:57:47;9.95;;;2.83;;
76320;SDS011;65132;52.088;5.402;2023-07-31T06:00:14;10.50;;;3.15;;
76320;SDS011;65132;52.088;5.402;2023-07-31T06:02:45;10.00;;;3.20;;
76320;SDS011;65132;52.088;5.402;2023-07-31T06:05:14;10.25;;;3.65;;
76320;SDS011;65132;52.088;5.402;2023-07-31T06:07:41;11.82;;;4.10;;
76320;SDS011;65132;52.088;5.402;2023-07-31T06:10:07;11.13;;;4.05;;
76320;SDS011;65132;52.088;5.402;2023-07-31T06:12:34;9.75;;;3.50;;
76320;SDS011;65132;52.088;5.402;2023-07-31T06:15:02;14.38;;;4.22;;
76320;SDS011;65132;52.088;5.402;2023-07-31T06:17:32;12.57;;;4.65;;
76320;SDS011;65132;52.088;5.402;2023-07-31T06:19:58;10.95;;;3.58;;
76320;SDS011;65132;52.088;5.402;2023-07-31T06:22:25;7.90;;;3.45;;
76320;SDS011;65132;52.088;5.402;2023-07-31T06:24:54;12.32;;;3.72;;
76320;SDS011;65132;52.088;5.402;2023-07-31T06:27:20;10.90;;;3.55;;
76320;SDS011;65132;52.088;5.402;2023-07-31T06:29:47;7.35;;;3.15;;
76320;SDS011;65132;52.088;5.402;2023-07-31T06:32:13;8.63;;;2.92;;
76320;SDS011;65132;52.088;5.402;2023-07-31T06:34:41;7.05;;;2.97;;
76320;SDS011;65132;52.088;5.402;2023-07-31T06:37:11;7.70;;;2.75;;
76320;SDS011;65132;52.088;5.402;2023-07-31T06:39:38;6.78;;;3.03;;
76320;SDS011;65132;52.088;5.402;2023-07-31T06:42:08;8.52;;;3.40;;
76320;SDS011;65132;52.088;5.402;2023-07-31T06:44:34;7.05;;;2.70;;
76320;SDS011;65132;52.088;5.402;2023-07-31T06:47:01;10.95;;;2.92;;
76320;SDS011;65132;52.088;5.402;2023-07-31T06:49:27;9.05;;;3.08;;
76320;SDS011;65132;52.088;5.402;2023-07-31T06:51:53;5.97;;;2.38;;
76320;SDS011;65132;52.088;5.402;2023-07-31T06:54:23;7.03;;;3.17;;
76320;SDS011;65132;52.088;5.402;2023-07-31T06:56:50;6.93;;;2.92;;
76320;SDS011;65132;52.088;5.402;2023-07-31T06:59:16;7.97;;;2.72;;
76320;SDS011;65132;52.088;5.402;2023-07-31T07:01:43;6.78;;;3.15;;
76320;SDS011;65132;52.088;5.402;2023-07-31T07:04:09;5.40;;;2.33;;
76320;SDS011;65132;52.088;5.402;2023-07-31T07:06:36;7.97;;;3.33;;
76320;SDS011;65132;52.088;5.402;2023-07-31T07:09:04;7.82;;;3.20;;
76320;SDS011;65132;52.088;5.402;2023-07-31T07:11:31;6.93;;;3.60;;
76320;SDS011;65132;52.088;5.402;2023-07-31T07:13:59;7.25;;;2.85;;
76320;SDS011;65132;52.088;5.402;2023-07-31T07:16:28;7.93;;;4.35;;
76320;SDS011;65132;52.088;5.402;2023-07-31T07:18:55;8.30;;;4.00;;
76320;SDS011;65132;52.088;5.402;2023-07-31T07:21:30;10.90;;;3.95;;
76320;SDS011;65132;52.088;5.402;2023-07-31T07:24:00;7.00;;;3.60;;
76320;SDS011;65132;52.088;5.402;2023-07-31T07:26:27;5.90;;;3.50;;
76320;SDS011;65132;52.088;5.402;2023-07-31T07:28:53;8.65;;;3.72;;
76320;SDS011;65132;52.088;5.402;2023-07-31T07:31:20;7.97;;;3.50;;
76320;SDS011;65132;52.088;5.402;2023-07-31T07:33:46;6.63;;;3.75;;
76320;SDS011;65132;52.088;5.402;2023-07-31T07:36:18;7.90;;;3.60;;
76320;SDS011;65132;52.088;5.402;2023-07-31T07:38:44;7.72;;;3.75;;
76320;SDS011;65132;52.088;5.402;2023-07-31T07:41:12;8.95;;;4.10;;
76320;SDS011;65132;52.088;5.402;2023-07-31T07:43:41;7.32;;;3.67;;
76320;SDS011;65132;52.088;5.402;2023-07-31T07:46:07;7.78;;;4.05;;
76320;SDS011;65132;52.088;5.402;2023-07-31T07:48:34;7.15;;;3.35;;
76320;SDS011;65132;52.088;5.402;2023-07-31T07:51:03;6.07;;;3.30;;
76320;SDS011;65132;52.088;5.402;2023-07-31T07:53:30;6.38;;;3.83;;
76320;SDS011;65132;52.088;5.402;2023-07-31T07:56:01;6.18;;;2.95;;
76320;SDS011;65132;52.088;5.402;2023-07-31T07:58:28;6.90;;;2.75;;
76320;SDS011;65132;52.088;5.402;2023-07-31T08:00:58;4.82;;;2.47;;
76320;SDS011;65132;52.088;5.402;2023-07-31T08:03:25;5.88;;;3.10;;
76320;SDS011;65132;52.088;5.402;2023-07-31T08:05:57;4.93;;;3.25;;
76320;SDS011;65132;52.088;5.402;2023-07-31T08:08:27;3.85;;;1.92;;
76320;SDS011;65132;52.088;5.402;2023-07-31T08:10:54;5.15;;;3.10;;
76320;SDS011;65132;52.088;5.402;2023-07-31T08:13:23;4.97;;;2.42;;
76320;SDS011;65132;52.088;5.402;2023-07-31T08:15:55;6.63;;;2.60;;
76320;SDS011;65132;52.088;5.402;2023-07-31T08:18:22;4.43;;;2.63;;
76320;SDS011;65132;52.088;5.402;2023-07-31T08:20:51;4.00;;;2.38;;
76320;SDS011;65132;52.088;5.402;2023-07-31T08:23:17;4.03;;;2.60;;
76320;SDS011;65132;52.088;5.402;2023-07-31T08:25:44;4.82;;;2.17;;
76320;SDS011;65132;52.088;5.402;2023-07-31T08:28:12;5.80;;;2.90;;
76320;SDS011;65132;52.088;5.402;2023-07-31T08:30:41;4.85;;;2.42;;
76320;SDS011;65132;52.088;5.402;2023-07-31T08:33:08;3.78;;;2.47;;
76320;SDS011;65132;52.088;5.402;2023-07-31T08:35:38;5.13;;;1.85;;
76320;SDS011;65132;52.088;5.402;2023-07-31T08:38:04;4.20;;;1.90;;
76320;SDS011;65132;52.088;5.402;2023-07-31T08:40:34;2.92;;;1.73;;
76320;SDS011;65132;52.088;5.402;2023-07-31T08:43:05;3.67;;;1.85;;
76320;SDS011;65132;52.088;5.402;2023-07-31T08:45:35;3.33;;;1.50;;
76320;SDS011;65132;52.088;5.402;2023-07-31T08:48:02;4.45;;;1.88;;
76320;SDS011;65132;52.088;5.402;2023-07-31T08:50:30;2.67;;;1.60;;
76320;SDS011;65132;52.088;5.402;2023-07-31T08:53:02;5.35;;;2.00;;
76320;SDS011;65132;52.088;5.402;2023-07-31T08:55:28;3.17;;;1.70;;
76320;SDS011;65132;52.088;5.402;2023-07-31T08:57:55;3.33;;;2.10;;
76320;SDS011;65132;52.088;5.402;2023-07-31T09:00:25;5.45;;;2.30;;
76320;SDS011;65132;52.088;5.402;2023-07-31T09:02:57;3.85;;;2.00;;
76320;SDS011;65132;52.088;5.402;2023-07-31T09:05:28;3.90;;;2.30;;
76320;SDS011;65132;52.088;5.402;2023-07-31T09:07:56;5.13;;;2.33;;
76320;SDS011;65132;52.088;5.402;2023-07-31T09:10:25;3.75;;;1.95;;
76320;SDS011;65132;52.088;5.402;2023-07-31T09:12:53;4.35;;;2.30;;
76320;SDS011;65132;52.088;5.402;2023-07-31T09:15:21;4.53;;;2.40;;
76320;SDS011;65132;52.088;5.402;2023-07-31T09:18:03;4.13;;;2.47;;
76320;SDS011;65132;52.088;5.402;2023-07-31T09:20:31;5.90;;;3.00;;
76320;SDS011;65132;52.088;5.402;2023-07-31T09:23:00;4.82;;;2.55;;
76320;SDS011;65132;52.088;5.402;2023-07-31T09:25:34;6.95;;;3.15;;
76320;SDS011;65132;52.088;5.402;2023-07-31T09:28:05;5.15;;;2.75;;
76320;SDS011;65132;52.088;5.402;2023-07-31T09:33:17;4.45;;;2.25;;
76320;SDS011;65132;52.088;5.402;2023-07-31T09:38:18;5.32;;;2.63;;
76320;SDS011;65132;52.088;5.402;2023-07-31T09:43:15;3.78;;;1.83;;
76320;SDS011;65132;52.088;5.402;2023-07-31T09:45:46;5.60;;;2.28;;
76320;SDS011;65132;52.088;5.402;2023-07-31T09:48:19;4.75;;;2.47;;
76320;SDS011;65132;52.088;5.402;2023-07-31T09:50:47;4.45;;;1.63;;
76320;SDS011;65132;52.088;5.402;2023-07-31T09:53:17;4.53;;;2.03;;
76320;SDS011;65132;52.088;5.402;2023-07-31T09:55:59;4.00;;;2.20;;
76320;SDS011;65132;52.088;5.402;2023-07-31T09:58:46;3.97;;;1.63;;
76320;SDS011;65132;52.088;5.402;2023-07-31T10:01:14;3.50;;;1.70;;
76320;SDS011;65132;52.088;5.402;2023-07-31T10:03:43;4.68;;;2.00;;
76320;SDS011;65132;52.088;5.402;2023-07-31T10:06:11;4.55;;;2.05;;
76320;SDS011;65132;52.088;5.402;2023-07-31T10:08:42;5.80;;;2.20;;
76320;SDS011;65132;52.088;5.402;2023-07-31T10:11:11;8.63;;;2.63;;
76320;SDS011;65132;52.088;5.402;2023-07-31T10:13:40;5.85;;;2.58;;
76320;SDS011;65132;52.088;5.402;2023-07-31T10:16:10;5.85;;;2.58;;
76320;SDS011;65132;52.088;5.402;2023-07-31T10:18:38;6.18;;;2.38;;
76320;SDS011;65132;52.088;5.402;2023-07-31T10:21:06;9.38;;;2.97;;
76320;SDS011;65132;52.088;5.402;2023-07-31T10:23:32;6.53;;;3.22;;
76320;SDS011;65132;52.088;5.402;2023-07-31T10:26:03;5.18;;;2.65;;
76320;SDS011;65132;52.088;5.402;2023-07-31T10:28:32;6.68;;;3.30;;
76320;SDS011;65132;52.088;5.402;2023-07-31T10:30:59;7.57;;;3.10;;
76320;SDS011;65132;52.088;5.402;2023-07-31T10:33:29;8.95;;;3.50;;
76320;SDS011;65132;52.088;5.402;2023-07-31T10:36:12;8.38;;;3.45;;
76320;SDS011;65132;52.088;5.402;2023-07-31T10:38:50;8.25;;;4.03;;
76320;SDS011;65132;52.088;5.402;2023-07-31T10:41:17;6.65;;;3.22;;
76320;SDS011;65132;52.088;5.402;2023-07-31T10:44:07;6.93;;;3.28;;
76320;SDS011;65132;52.088;5.402;2023-07-31T10:46:39;7.53;;;3.22;;
76320;SDS011;65132;52.088;5.402;2023-07-31T10:49:08;6.93;;;3.50;;
76320;SDS011;65132;52.088;5.402;2023-07-31T10:51:38;4.97;;;2.63;;
76320;SDS011;65132;52.088;5.402;2023-07-31T10:54:10;7.60;;;3.08;;
76320;SDS011;65132;52.088;5.402;2023-07-31T10:56:50;7.32;;;3.35;;
76320;SDS011;65132;52.088;5.402;2023-07-31T10:59:21;7.32;;;2.72;;
76320;SDS011;65132;52.088;5.402;2023-07-31T11:02:00;4.57;;;2.30;;
76320;SDS011;65132;52.088;5.402;2023-07-31T11:04:29;7.28;;;2.38;;
76320;SDS011;65132;52.088;5.402;2023-07-31T11:07:01;6.78;;;2.45;;
76320;SDS011;65132;52.088;5.402;2023-07-31T11:09:45;5.63;;;2.55;;
76320;SDS011;65132;52.088;5.402;2023-07-31T11:12:22;4.63;;;2.13;;
76320;SDS011;65132;52.088;5.402;2023-07-31T11:14:56;5.05;;;1.98;;
76320;SDS011;65132;52.088;5.402;2023-07-31T11:17:24;4.63;;;1.67;;
76320;SDS011;65132;52.088;5.402;2023-07-31T11:19:52;4.07;;;1.55;;
76320;SDS011;65132;52.088;5.402;2023-07-31T11:22:22;4.05;;;1.83;;
76320;SDS011;65132;52.088;5.402;2023-07-31T11:24:56;3.97;;;1.70;;
76320;SDS011;65132;52.088;5.402;2023-07-31T11:30:44;5.07;;;1.67;;
76320;SDS011;65132;52.088;5.402;2023-07-31T11:33:15;4.78;;;2.08;;
76320;SDS011;65132;52.088;5.402;2023-07-31T11:35:50;4.50;;;2.15;;
76320;SDS011;65132;52.088;5.402;2023-07-31T11:38:30;5.72;;;2.47;;
76320;SDS011;65132;52.088;5.402;2023-07-31T11:41:04;4.57;;;1.92;;
76320;SDS011;65132;52.088;5.402;2023-07-31T11:43:31;6.35;;;3.20;;
76320;SDS011;65132;52.088;5.402;2023-07-31T11:46:01;5.30;;;2.55;;
76320;SDS011;65132;52.088;5.402;2023-07-31T11:48:34;5.15;;;2.67;;
76320;SDS011;65132;52.088;5.402;2023-07-31T11:51:02;6.03;;;2.83;;
76320;SDS011;65132;52.088;5.402;2023-07-31T11:53:35;5.93;;;2.53;;
76320;SDS011;65132;52.088;5.402;2023-07-31T11:56:09;5.38;;;2.80;;
76320;SDS011;65132;52.088;5.402;2023-07-31T11:58:37;6.45;;;3.10;;
76320;SDS011;65132;52.088;5.402;2023-07-31T12:01:09;6.85;;;3.20;;
76320;SDS011;65132;52.088;5.402;2023-07-31T12:03:36;5.85;;;2.97;;
76320;SDS011;65132;52.088;5.402;2023-07-31T12:06:04;5.85;;;2.90;;
76320;SDS011;65132;52.088;5.402;2023-07-31T12:08:32;6.38;;;2.70;;
76320;SDS011;65132;52.088;5.402;2023-07-31T12:11:04;6.18;;;2.78;;
76320;SDS011;65132;52.088;5.402;2023-07-31T12:13:33;6.30;;;2.45;;
76320;SDS011;65132;52.088;5.402;2023-07-31T12:16:03;4.97;;;2.45;;
76320;SDS011;65132;52.088;5.402;2023-07-31T12:18:36;4.55;;;2.30;;
76320;SDS011;65132;52.088;5.402;2023-07-31T12:21:05;3.78;;;1.75;;
76320;SDS011;65132;52.088;5.402;2023-07-31T12:23:36;5.82;;;2.45;;
76320;SDS011;65132;52.088;5.402;2023-07-31T12:26:09;4.00;;;2.40;;
76320;SDS011;65132;52.088;5.402;2023-07-31T12:31:20;4.00;;;2.25;;
76320;SDS011;65132;52.088;5.402;2023-07-31T12:33:53;2.88;;;1.50;;
76320;SDS011;65132;52.088;5.402;2023-07-31T12:36:24;4.10;;;2.17;;
76320;SDS011;65132;52.088;5.402;2023-07-31T12:38:56;4.55;;;2.42;;
76320;SDS011;65132;52.088;5.402;2023-07-31T12:49:13;5.35;;;3.00;;
76320;SDS011;65132;52.088;5.402;2023-07-31T12:51:42;4.57;;;3.00;;
76320;SDS011;65132;52.088;5.402;2023-07-31T12:54:11;5.93;;;3.20;;
76320;SDS011;65132;52.088;5.402;2023-07-31T12:56:38;6.45;;;2.88;;
76320;SDS011;65132;52.088;5.402;2023-07-31T12:59:13;4.50;;;2.95;;
76320;SDS011;65132;52.088;5.402;2023-07-31T13:04:31;5.90;;;2.83;;
76320;SDS011;65132;52.088;5.402;2023-07-31T13:07:00;6.75;;;3.53;;
76320;SDS011;65132;52.088;5.402;2023-07-31T13:09:29;5.93;;;3.60;;
76320;SDS011;65132;52.088;5.402;2023-07-31T13:11:58;5.47;;;3.10;;
76320;SDS011;65132;52.088;5.402;2023-07-31T13:14:25;6.75;;;3.20;;
76320;SDS011;65132;52.088;5.402;2023-07-31T13:16:54;6.03;;;3.30;;
76320;SDS011;65132;52.088;5.402;2023-07-31T13:21:56;6.00;;;2.80;;
76320;SDS011;65132;52.088;5.402;2023-07-31T13:29:50;4.65;;;2.55;;
76320;SDS011;65132;52.088;5.402;2023-07-31T13:32:33;4.20;;;2.30;;
76320;SDS011;65132;52.088;5.402;2023-07-31T13:35:02;4.57;;;1.88;;
76320;SDS011;65132;52.088;5.402;2023-07-31T13:40:05;3.90;;;2.53;;
76320;SDS011;65132;52.088;5.402;2023-07-31T13:42:32;5.93;;;2.70;;
76320;SDS011;65132;52.088;5.402;2023-07-31T13:45:02;4.25;;;2.38;;
76320;SDS011;65132;52.088;5.402;2023-07-31T13:47:33;4.70;;;2.40;;
76320;SDS011;65132;52.088;5.402;2023-07-31T13:50:02;5.05;;;2.83;;
76320;SDS011;65132;52.088;5.402;2023-07-31T13:52:34;5.25;;;2.75;;
76320;SDS011;65132;52.088;5.402;2023-07-31T14:03:07;4.63;;;2.58;;
76320;SDS011;65132;52.088;5.402;2023-07-31T14:05:34;6.55;;;3.80;;
76320;SDS011;65132;52.088;5.402;2023-07-31T14:08:02;7.38;;;3.83;;
76320;SDS011;65132;52.088;5.402;2023-07-31T14:10:28;8.70;;;4.43;;
76320;SDS011;65132;52.088;5.402;2023-07-31T14:12:58;7.60;;;4.32;;
76320;SDS011;65132;52.088;5.402;2023-07-31T14:15:27;9.93;;;4.95;;
76320;SDS011;65132;52.088;5.402;2023-07-31T14:17:53;13.15;;;6.65;;
76320;SDS011;65132;52.088;5.402;2023-07-31T14:20:21;8.45;;;4.53;;
76320;SDS011;65132;52.088;5.402;2023-07-31T14:22:50;12.15;;;5.80;;
76320;SDS011;65132;52.088;5.402;2023-07-31T14:25:16;9.50;;;5.35;;
76320;SDS011;65132;52.088;5.402;2023-07-31T14:27:43;11.35;;;6.03;;
76320;SDS011;65132;52.088;5.402;2023-07-31T14:30:09;11.98;;;6.35;;
76320;SDS011;65132;52.088;5.402;2023-07-31T14:32:36;11.13;;;6.25;;
76320;SDS011;65132;52.088;5.402;2023-07-31T14:35:03;9.70;;;5.40;;
76320;SDS011;65132;52.088;5.402;2023-07-31T14:37:37;9.93;;;5.53;;
76320;SDS011;65132;52.088;5.402;2023-07-31T14:40:12;9.63;;;5.18;;
76320;SDS011;65132;52.088;5.402;2023-07-31T14:42:41;12.60;;;5.97;;
76320;SDS011;65132;52.088;5.402;2023-07-31T14:45:08;8.55;;;5.18;;
76320;SDS011;65132;52.088;5.402;2023-07-31T14:47:35;11.30;;;5.57;;
76320;SDS011;65132;52.088;5.402;2023-07-31T14:50:03;7.57;;;4.22;;
76320;SDS011;65132;52.088;5.402;2023-07-31T14:52:30;8.13;;;4.72;;
76320;SDS011;65132;52.088;5.402;2023-07-31T14:54:56;7.93;;;3.50;;
76320;SDS011;65132;52.088;5.402;2023-07-31T14:57:23;7.03;;;3.58;;
76320;SDS011;65132;52.088;5.402;2023-07-31T14:59:52;7.07;;;4.18;;
76320;SDS011;65132;52.088;5.402;2023-07-31T15:02:19;8.75;;;4.18;;
76320;SDS011;65132;52.088;5.402;2023-07-31T15:04:45;8.38;;;4.25;;
76320;SDS011;65132;52.088;5.402;2023-07-31T15:07:12;8.10;;;3.92;;
76320;SDS011;65132;52.088;5.402;2023-07-31T15:09:38;7.65;;;3.17;;
76320;SDS011;65132;52.088;5.402;2023-07-31T15:12:05;8.63;;;4.10;;
76320;SDS011;65132;52.088;5.402;2023-07-31T15:14:33;7.28;;;3.30;;
76320;SDS011;65132;52.088;5.402;2023-07-31T15:17:00;7.47;;;3.22;;
76320;SDS011;65132;52.088;5.402;2023-07-31T15:19:26;5.32;;;2.45;;
76320;SDS011;65132;52.088;5.402;2023-07-31T15:21:53;10.05;;;4.10;;
76320;SDS011;65132;52.088;5.402;2023-07-31T15:24:21;8.02;;;4.03;;
76320;SDS011;65132;52.088;5.402;2023-07-31T15:26:47;9.35;;;3.92;;
76320;SDS011;65132;52.088;5.402;2023-07-31T15:29:15;8.70;;;4.47;;
76320;SDS011;65132;52.088;5.402;2023-07-31T15:31:41;7.78;;;3.80;;
76320;SDS011;65132;52.088;5.402;2023-07-31T15:34:08;7.10;;;3.30;;
76320;SDS011;65132;52.088;5.402;2023-07-31T15:36:35;7.72;;;3.40;;
76320;SDS011;65132;52.088;5.402;2023-07-31T15:39:01;8.32;;;3.05;;
76320;SDS011;65132;52.088;5.402;2023-07-31T15:41:28;5.40;;;2.95;;
76320;SDS011;65132;52.088;5.402;2023-07-31T15:43:54;8.38;;;2.97;;
76320;SDS011;65132;52.088;5.402;2023-07-31T15:46:27;5.90;;;2.88;;